createdAt,value
2022-10-04T04:08:14.902Z,2.60
2022-10-04T04:11:28.356Z,3.58
2022-10-04T04:14:31.594Z,1.80
2022-10-04T04:17:38.191Z,2.80
2022-10-04T04:20:43.118Z,3.05
2022-10-04T04:23:59.712Z,5.78
2022-10-04T04:27:05.461Z,2.15
2022-10-04T04:30:15.934Z,5.93
2022-10-04T04:33:51.550Z,2.83
2022-10-04T04:36:59.590Z,7.10
2022-10-04T04:40:20.758Z,5.68
2022-10-04T04:43:27.947Z,2.15
2022-10-04T04:46:31.999Z,4.15
2022-10-04T04:49:39.824Z,12.85
2022-10-04T04:52:52.289Z,1.90
2022-10-04T04:56:03.799Z,4.10
2022-10-04T04:59:07.641Z,1.50
2022-10-04T05:02:35.119Z,2.75
2022-10-04T05:05:38.158Z,2.62
2022-10-04T05:08:50.519Z,2.12
2022-10-04T05:11:57.467Z,1.70
2022-10-04T05:15:00.452Z,1.65
2022-10-04T05:18:33.380Z,2.75
2022-10-04T05:21:48.904Z,3.10
2022-10-04T05:25:00.102Z,5.25
2022-10-04T05:28:03.175Z,9.57
2022-10-04T05:31:28.303Z,5.57
2022-10-04T05:34:36.740Z,1.60
2022-10-04T05:38:10.648Z,1.75
2022-10-04T05:41:36.558Z,3.25
2022-10-04T05:45:13.841Z,4.10
2022-10-04T05:48:18.474Z,2.25
2022-10-04T05:51:37.675Z,1.37
2022-10-04T05:54:40.667Z,1.23
2022-10-04T05:58:05.035Z,1.48
2022-10-04T06:01:45.885Z,1.92
2022-10-04T06:05:06.278Z,1.95
2022-10-04T14:39:16.262Z,1.73
2022-10-04T14:42:38.494Z,3.67
2022-10-04T14:46:16.764Z,2.12
2022-10-04T14:49:51.729Z,2.58
2022-10-04T14:52:57.985Z,2.47
2022-10-04T14:56:12.594Z,4.97
2022-10-04T14:59:22.703Z,2.58
2022-10-04T15:02:40.771Z,2.53
2022-10-04T15:06:06.779Z,2.58
2022-10-04T15:09:25.172Z,2.37
2022-10-04T15:12:51.797Z,2.08
2022-10-04T15:16:08.876Z,3.45
2022-10-04T15:19:20.824Z,3.10
2022-10-04T15:23:07.346Z,2.40
2022-10-04T15:26:36.237Z,2.80
2022-10-04T15:30:30.937Z,4.50
2022-10-04T15:33:45.667Z,2.10
2022-10-04T15:36:51.633Z,2.00
2022-10-04T15:40:22.499Z,5.85
2022-10-04T15:43:31.579Z,3.80
2022-10-04T15:46:43.856Z,2.05
2022-10-04T15:50:21.441Z,2.75
2022-10-04T15:54:03.290Z,3.20
2022-10-04T15:57:32.854Z,2.33
2022-10-04T16:01:04.175Z,5.95
2022-10-04T16:04:25.367Z,2.45
2022-10-04T16:07:41.638Z,2.35
2022-10-04T16:11:00.571Z,3.25
2022-10-04T16:14:22.065Z,2.58
2022-10-04T16:17:42.359Z,3.17
2022-10-04T16:21:06.299Z,2.87
2022-10-04T16:24:18.602Z,3.08
2022-10-04T16:27:27.139Z,2.60
2022-10-04T16:31:13.628Z,2.25
2022-10-04T16:34:34.226Z,3.17
2022-10-04T16:38:00.569Z,5.05
2022-10-04T16:41:29.279Z,5.93
2022-10-04T16:44:39.937Z,6.65
2022-10-04T16:47:48.861Z,8.07
2022-10-04T16:51:13.119Z,6.83
2022-10-04T16:54:42.352Z,5.40
2022-10-04T16:57:45.967Z,7.00
2022-10-04T17:00:49.872Z,8.75
2022-10-04T17:03:53.433Z,8.70
2022-10-04T17:07:14.587Z,14.18
2022-10-04T17:10:53.557Z,14.60
2022-10-04T17:14:07.440Z,10.25
2022-10-04T17:17:49.385Z,12.80
2022-10-04T17:20:59.014Z,16.02
2022-10-04T17:24:17.317Z,16.37
2022-10-04T17:27:56.603Z,14.52
2022-10-04T17:31:12.315Z,14.20
2022-10-04T17:34:51.160Z,14.10
2022-10-04T17:38:07.605Z,13.23
2022-10-04T17:41:41.160Z,12.10
2022-10-04T17:45:22.096Z,14.02
2022-10-04T17:48:47.788Z,11.70
2022-10-04T17:52:15.559Z,10.23
2022-10-04T17:55:35.829Z,11.63
2022-10-04T17:58:51.306Z,12.27
2022-10-04T18:02:03.147Z,10.80
2022-10-04T18:05:26.864Z,10.48
2022-10-04T18:08:46.597Z,9.88
2022-10-04T18:11:57.239Z,8.77
2022-10-04T18:15:28.769Z,7.62
2022-10-04T18:18:39.998Z,7.82
2022-10-04T18:21:51.767Z,8.63
2022-10-04T18:25:13.384Z,11.48
2022-10-04T18:28:21.818Z,12.90
2022-10-04T18:31:29.469Z,15.43
2022-10-04T18:34:35.465Z,11.63
2022-10-04T18:37:39.244Z,11.52
2022-10-04T18:40:52.893Z,9.90
2022-10-04T18:43:59.409Z,7.80
2022-10-04T18:47:02.437Z,14.68
2022-10-04T18:50:33.675Z,6.40
2022-10-04T18:53:46.132Z,7.03
2022-10-04T18:57:10.829Z,10.60
2022-10-04T19:00:33.590Z,6.97
2022-10-04T19:03:56.647Z,6.55
2022-10-04T19:07:37.552Z,8.55
2022-10-04T19:10:54.498Z,8.48
2022-10-04T19:14:11.019Z,8.50
2022-10-04T19:17:27.631Z,10.60
2022-10-04T19:20:44.409Z,9.15
2022-10-04T19:24:14.365Z,5.93
2022-10-04T19:27:26.492Z,6.25
2022-10-04T19:31:10.409Z,9.20
2022-10-04T19:34:54.710Z,7.62
2022-10-04T19:38:31.803Z,5.22
2022-10-04T19:41:46.505Z,4.90
2022-10-04T19:45:11.334Z,4.87
2022-10-04T19:48:25.777Z,6.43
2022-10-04T19:51:37.509Z,8.02
2022-10-04T19:54:40.375Z,8.40
2022-10-04T19:57:49.485Z,5.82
2022-10-04T20:00:53.389Z,10.52
2022-10-04T20:04:16.020Z,7.68
2022-10-04T20:07:23.409Z,5.78
2022-10-04T20:10:33.827Z,6.62
2022-10-04T20:13:36.551Z,5.75
2022-10-04T20:17:04.168Z,5.50
2022-10-04T20:20:08.016Z,5.30
2022-10-04T20:23:40.589Z,5.60
2022-10-04T20:26:56.781Z,10.32
2022-10-04T20:30:06.501Z,10.15
2022-10-04T20:33:10.082Z,10.90
2022-10-04T20:36:41.550Z,10.90
2022-10-04T20:39:47.291Z,5.93
2022-10-04T20:43:15.112Z,7.90
2022-10-04T20:46:25.735Z,10.73
2022-10-04T20:49:28.841Z,7.40
2022-10-04T20:52:33.710Z,7.47
2022-10-04T20:55:38.976Z,8.20
2022-10-04T20:58:41.778Z,9.55
2022-10-04T21:02:02.180Z,8.32
2022-10-04T21:05:18.045Z,20.75
2022-10-04T21:08:26.460Z,18.73
2022-10-04T21:11:44.731Z,12.00
2022-10-04T21:15:13.364Z,16.23
2022-10-04T21:18:23.956Z,9.88
2022-10-04T21:21:49.454Z,12.90
2022-10-04T21:25:25.762Z,12.95
2022-10-04T21:28:34.422Z,11.25
2022-10-04T21:31:37.207Z,10.35
2022-10-04T21:34:52.946Z,11.50
2022-10-04T21:37:58.978Z,12.73
2022-10-04T21:41:02.351Z,12.35
2022-10-04T21:44:04.998Z,9.23
2022-10-04T21:47:08.126Z,8.15
2022-10-04T21:50:10.917Z,7.95
2022-10-04T21:53:13.872Z,9.70
2022-10-04T21:56:16.542Z,7.62
2022-10-04T21:59:22.414Z,7.30
2022-10-04T22:02:25.097Z,7.50
2022-10-04T22:05:28.173Z,5.68
2022-10-04T22:08:30.826Z,7.93
2022-10-04T22:11:33.909Z,8.68
2022-10-04T22:14:36.564Z,5.72
2022-10-04T22:17:39.519Z,7.47
2022-10-04T22:20:42.520Z,6.55
2022-10-04T22:23:45.630Z,5.87
2022-10-04T22:26:48.948Z,6.53
2022-10-04T22:29:55.431Z,5.65
2022-10-04T22:33:00.669Z,8.82
2022-10-04T22:36:21.742Z,5.28
2022-10-04T22:39:25.274Z,5.10
2022-10-04T22:42:31.738Z,5.10
2022-10-04T22:45:34.413Z,5.05
2022-10-04T22:48:37.387Z,4.40
2022-10-04T22:51:41.433Z,7.12
2022-10-04T22:54:47.378Z,8.07
2022-10-04T22:57:50.430Z,7.30
2022-10-04T23:00:55.214Z,5.57
2022-10-04T23:03:58.451Z,5.40
2022-10-04T23:07:01.356Z,5.78
2022-10-04T23:10:04.403Z,5.47
2022-10-04T23:13:07.451Z,8.52
2022-10-04T23:16:12.327Z,6.37
2022-10-04T23:19:20.633Z,5.30
2022-10-04T23:22:27.819Z,7.25
2022-10-04T23:25:31.277Z,8.13
2022-10-04T23:28:34.077Z,6.85
2022-10-04T23:31:37.403Z,8.82
2022-10-04T23:34:45.974Z,6.07
2022-10-04T23:37:49.917Z,7.70
2022-10-04T23:40:54.126Z,10.25
2022-10-04T23:43:57.172Z,6.03
2022-10-04T23:47:00.458Z,7.65
2022-10-04T23:50:19.781Z,6.07
2022-10-04T23:53:31.890Z,7.60
2022-10-04T23:56:35.187Z,8.10
2022-10-04T23:59:39.726Z,10.88
